Terminal Aerodrome Forecast
Issued by NWS

Home | Current Version | Previous Version | Text Only | Print | Product List | Glossary On
Versions: 1 2 3 4 5 6 7 8 9 10 11 12 13 14 15 16 17 18 19
000
FTUS43 KMQT 251516 AAC
TAFCMX
TAF AMD
KCMX 251516Z 2515/2612 10012KT P6SM OVC004
     FM251600 10007KT P6SM BKN008
     FM251700 10010G15KT P6SM SCT025
     FM252000 10011G18KT P6SM SCT140
     FM260300 10010G15KT 6SM -SHRA BR OVC040
     FM260600 11007KT 6SM BR OVC070 WS020/13035KT
     FM260800 12007KT 6SM BR OVC035=

USA.gov is the U.S. government's official web portal to all federal, state and local government web resources and services.